createdAt,value
2022-09-09T00:02:09.720Z,12.20
2022-09-09T00:04:39.801Z,9.90
2022-09-09T00:07:14.495Z,11.40
2022-09-09T00:09:50.334Z,11.20
2022-09-09T00:12:23.389Z,11.80
2022-09-09T00:15:08.971Z,11.00
2022-09-09T00:17:42.543Z,10.80
2022-09-09T00:20:43.349Z,10.10
2022-09-09T00:23:25.865Z,10.70
2022-09-09T00:26:02.483Z,9.90
2022-09-09T00:28:35.490Z,9.50
2022-09-09T00:31:13.790Z,9.40
2022-09-09T00:33:44.310Z,9.40
2022-09-09T00:36:17.823Z,8.60
2022-09-09T00:38:50.381Z,11.20
2022-09-09T00:41:26.869Z,10.60
2022-09-09T00:44:04.414Z,11.20
2022-09-09T00:46:50.985Z,9.50
2022-09-09T00:49:36.962Z,9.40
2022-09-09T00:52:20.739Z,8.50
2022-09-09T00:55:04.270Z,9.00
2022-09-09T00:57:39.382Z,9.50
2022-09-09T01:00:22.360Z,10.00
2022-09-09T01:03:09.745Z,9.90
2022-09-09T01:05:58.718Z,10.10
2022-09-09T01:08:32.754Z,8.80
2022-09-09T01:11:01.286Z,8.90
2022-09-09T01:13:31.600Z,8.30
2022-09-09T01:16:06.965Z,9.10
2022-09-09T01:18:42.733Z,8.80
2022-09-09T01:21:38.780Z,8.00
2022-09-09T01:24:31.178Z,10.60
2022-09-09T01:27:07.553Z,9.30
2022-09-09T01:29:35.281Z,8.50
2022-09-09T01:32:24.480Z,7.90
2022-09-09T01:34:53.199Z,10.60
2022-09-09T01:37:20.876Z,8.00
2022-09-09T01:39:48.763Z,9.70
2022-09-09T01:42:17.788Z,10.50
2022-09-09T01:44:45.476Z,10.60
2022-09-09T01:47:13.274Z,11.00
2022-09-09T01:49:41.237Z,8.80
2022-09-09T01:52:09.976Z,10.60
2022-09-09T01:54:38.099Z,11.40
2022-09-09T01:57:21.516Z,12.20
2022-09-09T02:00:10.667Z,12.20
2022-09-09T02:03:06.191Z,11.40
2022-09-09T02:05:37.837Z,9.30
2022-09-09T02:08:43.409Z,9.30
2022-09-09T02:11:23.970Z,8.40
2022-09-09T02:13:59.121Z,12.00
2022-09-09T02:16:33.281Z,17.60
2022-09-09T02:19:24.973Z,13.60
2022-09-09T02:21:56.263Z,13.20
2022-09-09T02:24:27.319Z,13.40
2022-09-09T02:26:58.536Z,13.50
2022-09-09T02:29:31.574Z,10.60
2022-09-09T02:32:05.140Z,11.40
2022-09-09T02:34:38.268Z,12.50
2022-09-09T02:37:09.251Z,11.40
2022-09-09T02:39:37.605Z,10.30
2022-09-09T02:42:06.388Z,12.80
2022-09-09T02:44:34.340Z,12.60
2022-09-09T02:47:13.962Z,11.50
2022-09-09T02:49:51.603Z,10.50
2022-09-09T02:52:32.024Z,10.30
2022-09-09T02:55:11.006Z,10.40
2022-09-09T02:57:40.134Z,10.30
2022-09-09T03:00:08.742Z,10.50
2022-09-09T03:02:36.529Z,8.70
2022-09-09T03:05:06.114Z,8.90
2022-09-09T03:07:34.492Z,10.00
2022-09-09T03:10:02.573Z,11.90
2022-09-09T03:12:30.449Z,10.90
2022-09-09T03:14:58.275Z,11.20
2022-09-09T03:17:26.885Z,10.90
2022-09-09T03:19:56.117Z,10.20
2022-09-09T03:22:23.871Z,14.50
2022-09-09T03:24:51.761Z,12.30
2022-09-09T03:27:20.629Z,10.20
2022-09-09T03:29:51.130Z,9.80
2022-09-09T03:32:20.033Z,9.60
2022-09-09T03:34:48.522Z,8.50
2022-09-09T03:37:18.831Z,10.60
2022-09-09T03:39:46.895Z,11.20
2022-09-09T03:42:15.893Z,14.80
2022-09-09T03:44:44.388Z,11.00
2022-09-09T03:47:12.164Z,15.50
2022-09-09T03:49:39.964Z,12.10
2022-09-09T03:52:09.208Z,16.70
2022-09-09T03:54:37.100Z,14.50
2022-09-09T03:57:05.882Z,11.40
2022-09-09T03:59:33.550Z,13.10
2022-09-09T04:02:01.747Z,13.00
2022-09-09T04:04:29.466Z,15.20
2022-09-09T04:06:57.467Z,14.50
2022-09-09T04:09:25.395Z,13.00
2022-09-09T04:11:54.200Z,16.60
2022-09-09T04:14:23.099Z,13.50
2022-09-09T04:16:50.864Z,16.80
2022-09-09T04:19:18.694Z,16.40
2022-09-09T04:21:46.566Z,14.70
2022-09-09T04:24:14.256Z,16.60
2022-09-09T04:26:42.747Z,16.80
2022-09-09T04:29:10.832Z,14.10
2022-09-09T04:31:43.061Z,15.80
2022-09-09T04:34:11.267Z,13.20
2022-09-09T04:36:41.375Z,14.30
2022-09-09T04:39:09.163Z,17.70
2022-09-09T04:41:36.898Z,16.80
2022-09-09T04:44:04.760Z,18.20
2022-09-09T04:46:32.466Z,18.00
2022-09-09T04:49:00.189Z,18.00
2022-09-09T04:51:28.094Z,20.80
2022-09-09T04:53:55.921Z,22.50
2022-09-09T04:56:23.892Z,19.50
2022-09-09T04:58:51.674Z,19.80
2022-09-09T05:01:23.113Z,12.50
2022-09-09T05:03:53.156Z,11.10
2022-09-09T05:06:23.112Z,10.30
2022-09-09T05:08:51.621Z,8.40
2022-09-09T05:11:28.413Z,8.10
2022-09-09T05:13:57.570Z,10.60
2022-09-09T05:16:25.804Z,20.80
2022-09-09T05:18:53.585Z,24.00
2022-09-09T05:21:24.109Z,31.30
2022-09-09T05:23:54.664Z,19.50
2022-09-09T05:26:23.822Z,22.60
2022-09-09T05:28:51.564Z,24.10
2022-09-09T05:31:20.498Z,16.70
2022-09-09T05:33:50.523Z,17.60
2022-09-09T05:36:21.264Z,16.60
2022-09-09T05:38:50.925Z,13.70
2022-09-09T05:41:18.955Z,13.10
2022-09-09T05:43:50.600Z,13.20
2022-09-09T05:46:21.603Z,12.80
2022-09-09T05:48:52.082Z,13.00
2022-09-09T05:51:25.640Z,14.80
2022-09-09T05:53:56.287Z,21.00
2022-09-09T05:56:26.798Z,20.70
2022-09-09T05:58:55.910Z,14.90
2022-09-09T06:01:25.240Z,13.00
2022-09-09T06:03:54.072Z,12.10
2022-09-09T06:06:26.469Z,11.10
2022-09-09T06:08:59.172Z,12.10
2022-09-09T06:11:33.281Z,9.40
2022-09-09T06:14:01.572Z,9.60
2022-09-09T06:16:31.054Z,9.00
2022-09-09T06:18:59.374Z,10.30
2022-09-09T06:21:41.832Z,10.50
2022-09-09T06:24:09.885Z,9.70
2022-09-09T06:26:42.750Z,10.20
2022-09-09T06:29:11.203Z,11.90
2022-09-09T06:31:39.422Z,12.00
2022-09-09T06:34:08.986Z,10.60
2022-09-09T06:36:39.121Z,11.50
2022-09-09T06:39:14.191Z,14.00
2022-09-09T06:41:43.835Z,11.60
2022-09-09T06:44:12.990Z,8.70
2022-09-09T06:46:41.280Z,7.80
2022-09-09T06:49:10.213Z,8.40
2022-09-09T06:51:44.126Z,7.90
2022-09-09T06:54:13.278Z,11.20
2022-09-09T06:56:44.047Z,7.40
2022-09-09T06:59:13.289Z,7.00
2022-09-09T07:01:44.854Z,6.90
2022-09-09T07:04:13.669Z,7.60
2022-09-09T07:06:44.488Z,6.30
2022-09-09T07:09:14.333Z,6.90
2022-09-09T07:11:52.617Z,7.50
2022-09-09T07:14:20.741Z,6.50
2022-09-09T07:16:48.631Z,6.40
2022-09-09T07:19:16.653Z,6.20
2022-09-09T07:21:45.055Z,6.80
2022-09-09T07:24:13.821Z,7.60
2022-09-09T07:26:42.223Z,8.50
2022-09-09T07:29:10.063Z,7.00
2022-09-09T07:31:40.852Z,9.30
2022-09-09T07:34:08.857Z,8.40
2022-09-09T07:36:39.590Z,7.80
2022-09-09T07:39:10.280Z,9.70
2022-09-09T07:41:41.059Z,9.40
2022-09-09T07:44:18.165Z,9.70
2022-09-09T07:46:46.752Z,10.00
2022-09-09T07:49:16.226Z,10.70
2022-09-09T07:51:46.909Z,11.30
2022-09-09T07:54:18.360Z,10.10
2022-09-09T07:56:46.108Z,8.70
2022-09-09T07:59:14.706Z,8.90
2022-09-09T08:01:51.313Z,8.30
2022-09-09T08:04:20.770Z,9.50
2022-09-09T08:06:49.907Z,8.80
2022-09-09T08:09:18.328Z,7.90
2022-09-09T08:11:46.336Z,9.20
2022-09-09T08:14:14.440Z,7.80
2022-09-09T08:16:46.091Z,7.40
2022-09-09T08:19:16.866Z,8.30
2022-09-09T08:21:45.893Z,8.90
2022-09-09T08:24:17.631Z,8.60
2022-09-09T08:26:49.489Z,8.20
2022-09-09T08:29:18.695Z,11.50
2022-09-09T08:31:52.296Z,9.30
2022-09-09T08:34:21.205Z,9.30
2022-09-09T08:36:50.916Z,7.90
2022-09-09T08:39:21.569Z,9.00
2022-09-09T08:42:15.136Z,8.20
2022-09-09T08:45:04.255Z,8.60
2022-09-09T08:48:08.095Z,7.50
2022-09-09T08:50:39.622Z,8.00
2022-09-09T08:53:34.286Z,8.30
2022-09-09T08:56:10.270Z,6.70
2022-09-09T08:58:50.286Z,7.10
2022-09-09T09:01:42.953Z,8.00
2022-09-09T09:04:20.640Z,7.60
2022-09-09T09:07:16.364Z,6.40
2022-09-09T09:10:02.384Z,7.80
2022-09-09T09:12:38.037Z,7.50
2022-09-09T09:15:18.121Z,6.70
2022-09-09T09:17:46.371Z,6.80
2022-09-09T09:20:16.352Z,7.60
2022-09-09T09:22:52.989Z,9.90
2022-09-09T09:25:32.811Z,7.90
2022-09-09T09:28:24.426Z,8.20
2022-09-09T09:31:05.116Z,6.80
2022-09-09T09:33:35.763Z,8.00
2022-09-09T09:36:04.389Z,6.80
2022-09-09T09:41:43.993Z,7.50
2022-09-09T09:44:33.608Z,6.10
2022-09-09T09:47:11.968Z,6.70
2022-09-09T09:49:40.780Z,6.20
2022-09-09T09:52:19.172Z,6.60
2022-09-09T09:54:46.848Z,4.30
2022-09-09T09:57:17.608Z,7.30
2022-09-09T09:59:46.768Z,6.70
2022-09-09T10:02:15.781Z,5.70
2022-09-09T10:04:44.154Z,4.70
2022-09-09T10:07:23.377Z,5.40
2022-09-09T10:09:55.972Z,5.60
2022-09-09T10:12:32.960Z,4.10
2022-09-09T10:15:23.278Z,5.40
2022-09-09T10:18:46.142Z,6.10
2022-09-09T10:21:39.001Z,5.60
2022-09-09T10:24:31.476Z,6.00
2022-09-09T10:26:59.369Z,6.00
2022-09-09T10:29:53.496Z,5.10
2022-09-09T10:32:41.473Z,3.90
2022-09-09T10:35:37.832Z,5.70
2022-09-09T10:38:14.806Z,3.60
2022-09-09T10:40:52.433Z,3.30
2022-09-09T10:43:26.032Z,7.20
2022-09-09T10:46:08.899Z,3.40
2022-09-09T10:48:39.434Z,4.70
2022-09-09T10:51:07.340Z,3.60
2022-09-09T10:53:54.069Z,4.80
2022-09-09T10:56:25.001Z,2.90
2022-09-09T10:59:34.712Z,2.80
2022-09-09T11:02:18.570Z,2.10
2022-09-09T11:04:54.817Z,5.10
2022-09-09T11:07:48.891Z,7.40
2022-09-09T11:10:38.019Z,4.10
2022-09-09T11:13:16.899Z,2.20
2022-09-09T11:15:52.190Z,6.00
2022-09-09T11:18:24.512Z,3.00
2022-09-09T11:21:02.143Z,3.20
2022-09-09T11:23:41.801Z,5.20
2022-09-09T11:26:18.017Z,5.50
2022-09-09T11:29:18.814Z,2.40
2022-09-09T11:31:56.957Z,2.60
2022-09-09T11:34:37.445Z,4.50
2022-09-09T11:37:27.440Z,3.40
2022-09-09T11:40:25.007Z,2.90
2022-09-09T11:43:25.135Z,4.10
2022-09-09T11:46:00.175Z,2.10
2022-09-09T11:48:29.743Z,4.10
2022-09-09T11:51:02.248Z,3.30
2022-09-09T11:53:30.349Z,3.20
2022-09-09T11:56:34.859Z,2.00
2022-09-09T11:59:06.506Z,3.00
2022-09-09T12:01:34.085Z,3.20
2022-09-09T12:04:22.355Z,2.60
2022-09-09T12:06:54.521Z,3.30
2022-09-09T12:09:43.791Z,3.20
2022-09-09T12:12:14.574Z,2.40
2022-09-09T12:14:42.862Z,5.00
2022-09-09T12:17:40.912Z,3.10
2022-09-09T12:20:16.624Z,4.70
2022-09-09T12:23:11.574Z,3.70
2022-09-09T12:26:21.548Z,2.60
2022-09-09T12:29:10.772Z,2.10
2022-09-09T12:31:52.895Z,2.40
2022-09-09T12:34:39.047Z,3.40
2022-09-09T12:37:24.351Z,4.70
2022-09-09T12:40:01.006Z,2.10
2022-09-09T12:42:29.512Z,3.20
2022-09-09T12:45:01.170Z,3.30
2022-09-09T12:47:44.843Z,2.00
2022-09-09T12:50:38.613Z,5.90
2022-09-09T12:53:16.797Z,3.70
2022-09-09T12:56:11.493Z,4.80
2022-09-09T12:58:41.003Z,1.90
2022-09-09T13:01:23.664Z,8.40
2022-09-09T13:03:52.007Z,5.40
2022-09-09T13:06:39.945Z,2.50
2022-09-09T13:09:11.158Z,2.90
2022-09-09T13:11:40.933Z,1.50
2022-09-09T13:14:30.031Z,2.30
2022-09-09T13:17:00.708Z,3.80
2022-09-09T13:19:32.739Z,2.40
2022-09-09T13:22:00.499Z,2.10
2022-09-09T13:24:35.883Z,1.90
2022-09-09T13:27:32.607Z,3.00
2022-09-09T13:30:00.902Z,3.70
2022-09-09T13:32:29.666Z,3.90
2022-09-09T13:35:00.184Z,2.30
2022-09-09T13:37:39.537Z,2.70
2022-09-09T13:40:18.788Z,3.30
2022-09-09T13:42:46.777Z,3.30
2022-09-09T13:45:24.158Z,2.70
2022-09-09T13:47:53.728Z,1.50
2022-09-09T13:50:25.380Z,3.40
2022-09-09T13:53:00.382Z,2.50
2022-09-09T13:55:30.576Z,2.90
2022-09-09T13:58:01.698Z,3.30
2022-09-09T14:00:35.130Z,2.70
2022-09-09T14:03:03.227Z,2.70
2022-09-09T14:05:33.988Z,3.50
2022-09-09T14:08:04.261Z,4.20
2022-09-09T14:10:32.299Z,4.10
2022-09-09T14:13:00.025Z,2.80
2022-09-09T14:15:28.156Z,4.00
2022-09-09T14:17:56.104Z,2.90
2022-09-09T14:20:23.806Z,6.20
2022-09-09T14:22:51.556Z,2.50
2022-09-09T14:25:19.301Z,2.70
2022-09-09T14:27:47.107Z,2.70
2022-09-09T14:30:14.899Z,1.90
2022-09-09T14:32:42.760Z,3.10
2022-09-09T14:35:10.487Z,4.40
2022-09-09T14:37:40.210Z,3.00
2022-09-09T14:40:08.626Z,4.90
2022-09-09T14:42:36.367Z,3.50
2022-09-09T14:45:04.794Z,3.90
2022-09-09T14:47:33.318Z,3.50
2022-09-09T14:50:02.076Z,2.90
2022-09-09T14:52:31.312Z,3.90
2022-09-09T14:54:59.071Z,2.40
2022-09-09T14:57:26.793Z,2.40
2022-09-09T14:59:54.595Z,4.80
2022-09-09T15:02:22.460Z,3.10
2022-09-09T15:04:51.026Z,3.70
2022-09-09T15:07:20.559Z,2.60
2022-09-09T15:09:49.516Z,3.00
2022-09-09T15:12:19.864Z,3.10
2022-09-09T15:14:48.112Z,2.50
2022-09-09T15:17:15.904Z,2.60
2022-09-09T15:19:43.707Z,1.90
2022-09-09T15:22:11.555Z,2.30
2022-09-09T15:24:39.401Z,5.20
2022-09-09T15:27:07.160Z,2.80
2022-09-09T15:29:34.969Z,2.70
2022-09-09T15:32:03.095Z,3.00
2022-09-09T15:34:30.978Z,3.10
2022-09-09T15:37:01.050Z,2.90
2022-09-09T15:39:29.003Z,2.50
2022-09-09T15:41:57.742Z,2.90
2022-09-09T15:44:26.572Z,1.90
2022-09-09T15:46:57.568Z,1.90
2022-09-09T15:49:27.133Z,1.50
2022-09-09T15:51:58.440Z,2.40
2022-09-09T15:54:27.290Z,3.00
2022-09-09T15:56:57.329Z,5.80
2022-09-09T15:59:28.836Z,2.10
2022-09-09T16:01:57.680Z,3.40
2022-09-09T16:04:26.066Z,2.00
2022-09-09T16:07:03.058Z,2.10
2022-09-09T16:09:32.385Z,3.00
2022-09-09T16:12:07.489Z,7.90
2022-09-09T16:14:36.829Z,8.30
2022-09-09T16:17:06.395Z,7.50
2022-09-09T16:19:35.646Z,14.50
2022-09-09T16:22:05.107Z,4.90
2022-09-09T16:24:33.666Z,4.70
2022-09-09T16:27:01.459Z,3.80
2022-09-09T16:29:29.630Z,3.80
2022-09-09T16:32:02.726Z,3.60
2022-09-09T16:34:31.735Z,5.60
2022-09-09T16:36:59.465Z,5.90
2022-09-09T16:39:27.327Z,6.00
2022-09-09T16:41:55.198Z,5.70
2022-09-09T16:44:23.398Z,7.90
2022-09-09T16:46:58.146Z,9.80
2022-09-09T16:49:29.324Z,5.50
2022-09-09T16:51:59.776Z,5.00
2022-09-09T16:54:28.270Z,17.40
2022-09-09T16:56:56.297Z,21.80
2022-09-09T16:59:24.536Z,11.00
2022-09-09T17:01:53.325Z,7.80
2022-09-09T17:04:25.265Z,6.10
2022-09-09T17:06:54.974Z,5.20
2022-09-09T17:09:23.847Z,8.30
2022-09-09T17:11:53.236Z,5.10
2022-09-09T17:14:22.864Z,3.20
2022-09-09T17:16:50.844Z,6.00
2022-09-09T17:19:19.000Z,5.90
2022-09-09T17:24:39.599Z,9.30
2022-09-09T17:27:08.524Z,5.70
2022-09-09T17:29:37.006Z,14.30
2022-09-09T17:32:07.041Z,4.20
2022-09-09T17:34:35.916Z,6.30
2022-09-09T17:37:05.230Z,7.80
2022-09-09T17:39:34.047Z,11.00
2022-09-09T17:42:02.442Z,13.10
2022-09-09T17:44:33.328Z,7.60
2022-09-09T17:47:01.937Z,5.90
2022-09-09T17:49:29.676Z,4.20
2022-09-09T17:51:57.668Z,5.90
2022-09-09T17:54:25.739Z,5.00
2022-09-09T17:56:53.587Z,6.30
2022-09-09T17:59:21.369Z,6.50
2022-09-09T18:01:50.907Z,4.90
2022-09-09T18:04:20.475Z,6.80
2022-09-09T18:06:51.144Z,3.80
2022-09-09T18:09:23.395Z,5.00
2022-09-09T18:11:54.636Z,5.20
2022-09-09T18:14:26.363Z,11.60
2022-09-09T18:16:54.545Z,9.50
2022-09-09T18:19:25.553Z,9.80
2022-09-09T18:21:54.692Z,6.30
2022-09-09T18:24:23.522Z,10.50
2022-09-09T18:26:51.477Z,10.40
2022-09-09T18:29:23.615Z,11.40
2022-09-09T18:31:53.324Z,8.70
2022-09-09T18:34:22.878Z,11.60
2022-09-09T18:36:55.175Z,13.90
2022-09-09T18:39:27.573Z,13.70
2022-09-09T18:42:02.338Z,10.40
2022-09-09T18:44:33.394Z,14.60
2022-09-09T18:47:03.560Z,64.00
2022-09-09T18:49:33.477Z,27.50
2022-09-09T18:52:02.917Z,10.50
2022-09-09T18:54:33.399Z,9.40
2022-09-09T18:57:01.396Z,11.50
2022-09-09T18:59:30.247Z,12.60
2022-09-09T19:01:58.490Z,8.70
2022-09-09T19:04:27.679Z,10.00
2022-09-09T19:06:59.139Z,13.00
2022-09-09T19:09:31.187Z,14.50
2022-09-09T19:12:00.832Z,14.50
2022-09-09T19:14:30.245Z,12.00
2022-09-09T19:16:58.946Z,13.50
2022-09-09T19:19:30.579Z,9.30
2022-09-09T19:21:59.425Z,11.10
2022-09-09T19:24:30.383Z,10.50
2022-09-09T19:27:01.953Z,14.30
2022-09-09T19:29:33.158Z,16.10
2022-09-09T19:32:42.685Z,15.30
2022-09-09T19:34:51.998Z,13.80
2022-09-09T19:37:20.508Z,11.30
2022-09-09T19:39:49.830Z,11.00
2022-09-09T19:42:17.818Z,15.10
2022-09-09T19:44:46.496Z,19.20
2022-09-09T19:47:15.197Z,21.60
2022-09-09T19:49:46.992Z,18.70
2022-09-09T19:52:17.145Z,23.20
2022-09-09T19:54:46.873Z,19.50
2022-09-09T19:57:15.574Z,20.70
2022-09-09T19:59:43.331Z,26.40
2022-09-09T20:02:15.837Z,22.60
2022-09-09T20:04:44.581Z,27.70
2022-09-09T20:07:14.849Z,26.50
2022-09-09T20:09:42.588Z,28.50
2022-09-09T20:12:10.595Z,31.70
2022-09-09T20:14:39.883Z,37.30
2022-09-09T20:17:08.359Z,33.60
2022-09-09T20:19:36.136Z,26.40
2022-09-09T20:22:04.468Z,33.00
2022-09-09T20:24:32.347Z,29.20
2022-09-09T20:27:00.123Z,28.20
2022-09-09T20:29:27.930Z,28.70
2022-09-09T20:31:55.629Z,31.90
2022-09-09T20:34:25.802Z,34.70
2022-09-09T20:36:54.805Z,35.40
2022-09-09T20:39:22.665Z,36.00
2022-09-09T20:41:50.812Z,42.00
2022-09-09T20:44:22.910Z,42.40
2022-09-09T20:46:55.234Z,33.90
2022-09-09T20:49:24.370Z,35.70
2022-09-09T20:51:53.787Z,34.80
2022-09-09T20:54:26.916Z,32.10
2022-09-09T20:56:58.087Z,27.30
2022-09-09T20:59:31.281Z,22.70
2022-09-09T21:02:00.919Z,15.90
2022-09-09T21:04:29.470Z,18.50
2022-09-09T21:06:57.463Z,17.40
2022-09-09T21:09:25.294Z,18.20
2022-09-09T21:11:53.833Z,15.70
2022-09-09T21:14:22.512Z,12.40
2022-09-09T21:16:50.505Z,14.30
2022-09-09T21:19:18.711Z,14.50
2022-09-09T21:21:47.967Z,11.60
2022-09-09T21:24:16.837Z,10.10
2022-09-09T21:26:44.767Z,8.90
2022-09-09T21:29:13.199Z,11.70
2022-09-09T21:31:43.505Z,11.80
2022-09-09T21:34:13.326Z,9.00
2022-09-09T21:36:41.194Z,10.50
2022-09-09T21:39:09.038Z,7.10
2022-09-09T21:41:37.002Z,10.00
2022-09-09T21:44:04.777Z,10.90
2022-09-09T21:46:32.632Z,9.60
2022-09-09T21:49:03.462Z,7.90
2022-09-09T21:51:31.249Z,9.50
2022-09-09T21:53:59.537Z,8.80
2022-09-09T21:56:27.366Z,10.90
2022-09-09T21:58:57.691Z,11.70
2022-09-09T22:01:26.407Z,15.30
2022-09-09T22:03:55.037Z,11.60
2022-09-09T22:06:22.764Z,11.40
2022-09-09T22:08:51.069Z,8.00
2022-09-09T22:11:22.784Z,4.80
2022-09-09T22:13:51.121Z,7.10
2022-09-09T22:16:21.806Z,8.10
2022-09-09T22:18:56.826Z,5.70
2022-09-09T22:21:27.140Z,6.20
2022-09-09T22:23:57.889Z,4.30
2022-09-09T22:26:27.991Z,3.10
2022-09-09T22:28:57.425Z,3.30
2022-09-09T22:31:26.770Z,4.40
2022-09-09T22:33:54.766Z,3.30
2022-09-09T22:36:23.263Z,2.20
2022-09-09T22:38:51.481Z,2.70
2022-09-09T22:41:20.017Z,3.50
2022-09-09T22:43:48.632Z,6.10
2022-09-09T22:46:17.234Z,8.70
2022-09-09T22:48:44.951Z,8.70
2022-09-09T22:51:14.693Z,7.90
2022-09-09T22:53:44.783Z,9.50
2022-09-09T22:56:17.337Z,7.60
2022-09-09T22:58:46.846Z,10.20
2022-09-09T23:01:21.182Z,8.20
2022-09-09T23:03:50.548Z,10.20
2022-09-09T23:06:22.489Z,10.70
2022-09-09T23:09:02.238Z,8.90
2022-09-09T23:11:33.723Z,6.50
2022-09-09T23:14:03.185Z,7.00
2022-09-09T23:16:35.441Z,8.30
2022-09-09T23:19:03.726Z,5.90
2022-09-09T23:21:32.385Z,8.30
2022-09-09T23:24:00.712Z,9.40
2022-09-09T23:26:29.906Z,5.70
2022-09-09T23:28:59.841Z,5.70
2022-09-09T23:31:30.627Z,6.20
2022-09-09T23:34:02.786Z,7.80
2022-09-09T23:36:31.239Z,6.50
2022-09-09T23:39:02.132Z,5.20
2022-09-09T23:41:31.977Z,8.90
2022-09-09T23:44:00.908Z,7.10
2022-09-09T23:46:30.861Z,7.70
2022-09-09T23:48:59.982Z,7.60
2022-09-09T23:51:30.361Z,6.50
2022-09-09T23:54:01.968Z,6.00
2022-09-09T23:56:32.981Z,6.40
2022-09-09T23:59:01.237Z,3.50
